Terminal Aerodrome Forecast
Issued by NWS

Home | Current Version | Previous Version | Text Only | Print | Product List | Glossary On
Versions: 1 2 3 4 5 6 7 8 9 10 11 12 13 14 15 16
000
FTUS41 KBTV 031732
TAFSLK
TAF
KSLK 031732Z 0318/0418 27004KT P6SM SCT060
      TEMPO 0318/0322 BKN060
     FM040900 00000KT 2SM BR BKN200
     FM041100 00000KT P6SM BKN100=

USA.gov is the U.S. government's official web portal to all federal, state and local government web resources and services.